PWSweather.com
Personal Weather Stations
Station Observations
K4FB1
Clubhouse Heritage, Lakeland, FL 33812

Clubhouse HeritageLakeland, FL 33812

Lat: 27.969224, Lon: -81.897769

Elevation: 145

Station Type: Davis Vantage Pro2

http://www.ClubhouseWX.com

High Low Average
Temperature 76.5°F24.7°C 36.8°F2.7°C 55.9°F13.3°C
Dew Point 40.9°F4.9°C -55.7°F-48.7°C 22.1°F-5.5°C
Winds 5.0 mph 8.0 kmh Calm Calm 2.0 mph SSW3.2 kmh SSW
Wind Gusts 13.0 mph20.9 kmh -- 5.0 mph8.0 kmh
Humidity 72% 0% 35%
Pressure 30.22 in1023.4 mb 30.08 in1018.6 mb -
Precipitation 0.00 in0.0 mm - -
Hour Temp Dew Point Humidity Winds Wind Gusts Pressure Precip Precip Rate Daily Precip Total
12:00 AM 50.0°F10.0°C 41.0°F5.0°C 71% 2.0 mph WNW3.2 kmh WNW 7.0 mph11.3 kmh 30.14 in1020.7 mb 0.00 in0.0 mm 0.00 in0.0 mm 0.00 in0.0 mm
12:05 AM 50.0°F10.0°C 41.0°F5.0°C 71% 3.0 mph WNW4.8 kmh WNW 8.0 mph12.9 kmh 30.14 in1020.7 mb 0.00 in0.0 mm 0.00 in0.0 mm 0.00 in0.0 mm
12:10 AM 49.9°F9.9°C 40.9°F4.9°C 71% 2.0 mph NW3.2 kmh NW 8.0 mph12.9 kmh 30.14 in1020.7 mb 0.00 in0.0 mm 0.00 in0.0 mm 0.00 in0.0 mm
12:15 AM 49.8°F9.9°C 40.8°F4.9°C 71% 3.0 mph NW4.8 kmh NW 6.0 mph9.7 kmh 30.14 in1020.7 mb 0.00 in0.0 mm 0.00 in0.0 mm 0.00 in0.0 mm
12:20 AM 49.8°F9.9°C 40.8°F4.9°C 71% 3.0 mph NW4.8 kmh NW 8.0 mph12.9 kmh 30.14 in1020.7 mb 0.00 in0.0 mm 0.00 in0.0 mm 0.00 in0.0 mm
12:25 AM 49.8°F9.9°C 40.8°F4.9°C 71% 3.0 mph NW4.8 kmh NW 8.0 mph12.9 kmh 30.14 in1020.7 mb 0.00 in0.0 mm 0.00 in0.0 mm 0.00 in0.0 mm
12:30 AM 49.8°F9.9°C 40.8°F4.9°C 71% 3.0 mph WNW4.8 kmh WNW 9.0 mph14.5 kmh 30.14 in1020.7 mb 0.00 in0.0 mm 0.00 in0.0 mm 0.00 in0.0 mm
12:35 AM 49.8°F9.9°C 40.8°F4.9°C 71% 3.0 mph NW4.8 kmh NW 9.0 mph14.5 kmh 30.14 in1020.7 mb 0.00 in0.0 mm 0.00 in0.0 mm 0.00 in0.0 mm
12:40 AM 49.8°F9.9°C 40.8°F4.9°C 71% 3.0 mph NW4.8 kmh NW 6.0 mph9.7 kmh 30.14 in1020.7 mb 0.00 in0.0 mm 0.00 in0.0 mm 0.00 in0.0 mm
12:45 AM 49.8°F9.9°C 40.8°F4.9°C 71% 3.0 mph NW4.8 kmh NW 6.0 mph9.7 kmh 30.14 in1020.7 mb 0.00 in0.0 mm 0.00 in0.0 mm 0.00 in0.0 mm
12:50 AM 49.7°F9.8°C 40.7°F4.8°C 71% 4.0 mph NW6.4 kmh NW 8.0 mph12.9 kmh 30.14 in1020.7 mb 0.00 in0.0 mm 0.00 in0.0 mm 0.00 in0.0 mm
12:55 AM 49.6°F9.8°C 40.6°F4.8°C 71% 4.0 mph NW6.4 kmh NW 8.0 mph12.9 kmh 30.14 in1020.7 mb 0.00 in0.0 mm 0.00 in0.0 mm 0.00 in0.0 mm
01:00 AM 49.5°F9.7°C 40.8°F4.9°C 72% 3.0 mph NW4.8 kmh NW 7.0 mph11.3 kmh 30.14 in1020.7 mb 0.00 in0.0 mm 0.00 in0.0 mm 0.00 in0.0 mm
01:05 AM 49.3°F9.6°C 40.7°F4.8°C 72% 3.0 mph WNW4.8 kmh WNW 7.0 mph11.3 kmh 30.14 in1020.7 mb 0.00 in0.0 mm 0.00 in0.0 mm 0.00 in0.0 mm
01:10 AM 49.1°F9.5°C 40.1°F4.5°C 71% 3.0 mph WNW4.8 kmh WNW 6.0 mph9.7 kmh 30.14 in1020.7 mb 0.00 in0.0 mm 0.00 in0.0 mm 0.00 in0.0 mm
01:15 AM 49.0°F9.4°C 40.4°F4.7°C 72% 3.0 mph NW4.8 kmh NW 6.0 mph9.7 kmh 30.14 in1020.7 mb 0.00 in0.0 mm 0.00 in0.0 mm 0.00 in0.0 mm
01:20 AM 48.8°F9.3°C 40.2°F4.6°C 72% 2.0 mph NW3.2 kmh NW 5.0 mph8.0 kmh 30.14 in1020.7 mb 0.00 in0.0 mm 0.00 in0.0 mm 0.00 in0.0 mm
01:25 AM 48.6°F9.2°C 40.0°F4.4°C 72% 2.0 mph NW3.2 kmh NW 5.0 mph8.0 kmh 30.14 in1020.7 mb 0.00 in0.0 mm 0.00 in0.0 mm 0.00 in0.0 mm
01:30 AM 48.5°F9.2°C 39.5°F4.2°C 71% 3.0 mph NW4.8 kmh NW 5.0 mph8.0 kmh 30.14 in1020.7 mb 0.00 in0.0 mm 0.00 in0.0 mm 0.00 in0.0 mm
01:35 AM 48.4°F9.1°C 39.4°F4.1°C 71% 3.0 mph NW4.8 kmh NW 5.0 mph8.0 kmh 30.14 in1020.7 mb 0.00 in0.0 mm 0.00 in0.0 mm 0.00 in0.0 mm
01:40 AM 48.3°F9.1°C 39.3°F4.1°C 71% 2.0 mph NW3.2 kmh NW 5.0 mph8.0 kmh 30.14 in1020.7 mb 0.00 in0.0 mm 0.00 in0.0 mm 0.00 in0.0 mm
01:45 AM 48.2°F9.0°C 39.2°F4.0°C 71% 2.0 mph NW3.2 kmh NW 4.0 mph6.4 kmh 30.15 in1021.0 mb 0.00 in0.0 mm 0.00 in0.0 mm 0.00 in0.0 mm
01:50 AM 48.0°F8.9°C 39.0°F3.9°C 71% 2.0 mph NW3.2 kmh NW 4.0 mph6.4 kmh 30.15 in1021.0 mb 0.00 in0.0 mm 0.00 in0.0 mm 0.00 in0.0 mm
01:55 AM 47.9°F8.8°C 38.9°F3.8°C 71% 2.0 mph NW3.2 kmh NW 4.0 mph6.4 kmh 30.15 in1021.0 mb 0.00 in0.0 mm 0.00 in0.0 mm 0.00 in0.0 mm
02:00 AM 47.7°F8.7°C 38.8°F3.8°C 71% 1.0 mph NW1.6 kmh NW 4.0 mph6.4 kmh 30.15 in1021.0 mb 0.00 in0.0 mm 0.00 in0.0 mm 0.00 in0.0 mm
02:05 AM 47.4°F8.6°C 38.5°F3.6°C 71% Calm Calm 2.0 mph3.2 kmh 30.15 in1021.0 mb 0.00 in0.0 mm 0.00 in0.0 mm 0.00 in0.0 mm
02:10 AM 47.0°F8.3°C 38.1°F3.4°C 71% Calm Calm 2.0 mph3.2 kmh 30.15 in1021.0 mb 0.00 in0.0 mm 0.00 in0.0 mm 0.00 in0.0 mm
02:15 AM 46.6°F8.1°C 37.7°F3.2°C 71% 1.0 mph NW1.6 kmh NW 2.0 mph3.2 kmh 30.15 in1021.0 mb 0.00 in0.0 mm 0.00 in0.0 mm 0.00 in0.0 mm
02:20 AM 46.2°F7.9°C 37.3°F2.9°C 71% 1.0 mph NW1.6 kmh NW 2.0 mph3.2 kmh 30.15 in1021.0 mb 0.00 in0.0 mm 0.00 in0.0 mm 0.00 in0.0 mm
02:25 AM 45.9°F7.7°C 36.3°F2.4°C 69% 1.0 mph NW1.6 kmh NW 2.0 mph3.2 kmh 30.15 in1021.0 mb 0.00 in0.0 mm 0.00 in0.0 mm 0.00 in0.0 mm
02:30 AM 45.6°F7.6°C 35.6°F2.0°C 68% Calm Calm 2.0 mph3.2 kmh 30.15 in1021.0 mb 0.00 in0.0 mm 0.00 in0.0 mm 0.00 in0.0 mm
02:35 AM 45.3°F7.4°C 35.0°F1.7°C 67% Calm Calm 1.0 mph1.6 kmh 30.14 in1020.7 mb 0.00 in0.0 mm 0.00 in0.0 mm 0.00 in0.0 mm
02:40 AM 45.0°F7.2°C 33.9°F1.1°C 65% Calm Calm 1.0 mph1.6 kmh 30.14 in1020.7 mb 0.00 in0.0 mm 0.00 in0.0 mm 0.00 in0.0 mm
02:45 AM 44.7°F7.1°C 32.9°F0.5°C 63% Calm Calm 2.0 mph3.2 kmh 30.14 in1020.7 mb 0.00 in0.0 mm 0.00 in0.0 mm 0.00 in0.0 mm
02:50 AM 44.4°F6.9°C 31.8°F-0.1°C 61% Calm Calm 2.0 mph3.2 kmh 30.14 in1020.7 mb 0.00 in0.0 mm 0.00 in0.0 mm 0.00 in0.0 mm
02:55 AM 44.1°F6.7°C 31.1°F-0.5°C 60% Calm Calm 1.0 mph1.6 kmh 30.14 in1020.7 mb 0.00 in0.0 mm 0.00 in0.0 mm 0.00 in0.0 mm
03:00 AM 43.8°F6.6°C 29.5°F-1.4°C 57% Calm Calm 1.0 mph1.6 kmh 30.14 in1020.7 mb 0.00 in0.0 mm 0.00 in0.0 mm 0.00 in0.0 mm
03:05 AM 43.6°F6.4°C 28.5°F-1.9°C 55% Calm Calm 1.0 mph1.6 kmh 30.14 in1020.7 mb 0.00 in0.0 mm 0.00 in0.0 mm 0.00 in0.0 mm
03:10 AM 43.3°F6.3°C 28.6°F-1.9°C 56% Calm Calm 1.0 mph1.6 kmh 30.14 in1020.7 mb 0.00 in0.0 mm 0.00 in0.0 mm 0.00 in0.0 mm
03:15 AM 43.1°F6.2°C 27.6°F-2.4°C 54% Calm Calm 1.0 mph1.6 kmh 30.14 in1020.7 mb 0.00 in0.0 mm 0.00 in0.0 mm 0.00 in0.0 mm
03:20 AM 42.9°F6.1°C 26.0°F-3.3°C 51% Calm Calm 1.0 mph1.6 kmh 30.14 in1020.7 mb 0.00 in0.0 mm 0.00 in0.0 mm 0.00 in0.0 mm
03:25 AM 42.7°F5.9°C 25.3°F-3.7°C 50% Calm Calm 1.0 mph1.6 kmh 30.14 in1020.7 mb 0.00 in0.0 mm 0.00 in0.0 mm 0.00 in0.0 mm
03:30 AM 42.5°F5.8°C 24.2°F-4.3°C 48% Calm Calm 1.0 mph1.6 kmh 30.14 in1020.7 mb 0.00 in0.0 mm 0.00 in0.0 mm 0.00 in0.0 mm
03:35 AM 42.3°F5.7°C 25.0°F-3.9°C 50% Calm Calm 1.0 mph1.6 kmh 30.14 in1020.7 mb 0.00 in0.0 mm 0.00 in0.0 mm 0.00 in0.0 mm
03:40 AM 42.0°F5.6°C 25.2°F-3.8°C 51% Calm Calm -- 30.14 in1020.7 mb 0.00 in0.0 mm 0.00 in0.0 mm 0.00 in0.0 mm
03:45 AM 41.7°F5.4°C 24.4°F-4.2°C 50% Calm Calm -- 30.14 in1020.7 mb 0.00 in0.0 mm 0.00 in0.0 mm 0.00 in0.0 mm
03:50 AM 41.5°F5.3°C 23.2°F-4.9°C 48% Calm Calm 1.0 mph1.6 kmh 30.14 in1020.7 mb 0.00 in0.0 mm 0.00 in0.0 mm 0.00 in0.0 mm
03:55 AM 41.3°F5.2°C 23.1°F-4.9°C 48% Calm Calm 1.0 mph1.6 kmh 30.14 in1020.7 mb 0.00 in0.0 mm 0.00 in0.0 mm 0.00 in0.0 mm
04:00 AM 41.0°F5.0°C 22.8°F-5.1°C 48% Calm Calm -- 30.13 in1020.3 mb 0.00 in0.0 mm 0.00 in0.0 mm 0.00 in0.0 mm
04:05 AM 40.9°F4.9°C 21.7°F-5.7°C 46% Calm Calm 1.0 mph1.6 kmh 30.14 in1020.7 mb 0.00 in0.0 mm 0.00 in0.0 mm 0.00 in0.0 mm
04:10 AM 40.6°F4.8°C 20.4°F-6.4°C 44% Calm Calm 1.0 mph1.6 kmh 30.13 in1020.3 mb 0.00 in0.0 mm 0.00 in0.0 mm 0.00 in0.0 mm
04:15 AM 40.5°F4.7°C 19.7°F-6.8°C 43% Calm Calm -- 30.13 in1020.3 mb 0.00 in0.0 mm 0.00 in0.0 mm 0.00 in0.0 mm
04:20 AM 40.4°F4.7°C 18.0°F-7.8°C 40% Calm Calm 1.0 mph1.6 kmh 30.13 in1020.3 mb 0.00 in0.0 mm 0.00 in0.0 mm 0.00 in0.0 mm
04:25 AM 40.3°F4.6°C 11.3°F-11.5°C 30% 1.0 mph NW1.6 kmh NW 2.0 mph3.2 kmh 30.13 in1020.3 mb 0.00 in0.0 mm 0.00 in0.0 mm 0.00 in0.0 mm
04:30 AM 40.5°F4.7°C 3.6°F-15.8°C 21% 1.0 mph NW1.6 kmh NW 2.0 mph3.2 kmh 30.13 in1020.3 mb 0.00 in0.0 mm 0.00 in0.0 mm 0.00 in0.0 mm
04:35 AM 40.6°F4.8°C 0.3°F-17.6°C 18% 1.0 mph NW1.6 kmh NW 1.0 mph1.6 kmh 30.13 in1020.3 mb 0.00 in0.0 mm 0.00 in0.0 mm 0.00 in0.0 mm
04:40 AM 40.7°F4.8°C -6.4°F-21.3°C 13% 1.0 mph NW1.6 kmh NW 2.0 mph3.2 kmh 30.13 in1020.3 mb 0.00 in0.0 mm 0.00 in0.0 mm 0.00 in0.0 mm
04:45 AM 40.7°F4.8°C -6.4°F-21.3°C 13% Calm Calm 2.0 mph3.2 kmh 30.13 in1020.3 mb 0.00 in0.0 mm 0.00 in0.0 mm 0.00 in0.0 mm
04:50 AM 40.6°F4.8°C -6.5°F-21.4°C 13% Calm Calm 1.0 mph1.6 kmh 30.13 in1020.3 mb 0.00 in0.0 mm 0.00 in0.0 mm 0.00 in0.0 mm
04:55 AM 40.5°F4.7°C -6.6°F-21.4°C 13% Calm Calm 1.0 mph1.6 kmh 30.14 in1020.7 mb 0.00 in0.0 mm 0.00 in0.0 mm 0.00 in0.0 mm
05:00 AM 40.5°F4.7°C -6.6°F-21.4°C 13% Calm Calm 1.0 mph1.6 kmh 30.13 in1020.3 mb 0.00 in0.0 mm 0.00 in0.0 mm 0.00 in0.0 mm
05:05 AM 40.3°F4.6°C -5.2°F-20.7°C 14% Calm Calm 1.0 mph1.6 kmh 30.13 in1020.3 mb 0.00 in0.0 mm 0.00 in0.0 mm 0.00 in0.0 mm
05:10 AM 40.1°F4.5°C -2.6°F-19.2°C 16% Calm Calm -- 30.14 in1020.7 mb 0.00 in0.0 mm 0.00 in0.0 mm 0.00 in0.0 mm
05:15 AM 39.9°F4.4°C -0.3°F-17.9°C 18% Calm Calm -- 30.14 in1020.7 mb 0.00 in0.0 mm 0.00 in0.0 mm 0.00 in0.0 mm
05:20 AM 39.7°F4.3°C 0.7°F-17.4°C 19% Calm Calm -- 30.14 in1020.7 mb 0.00 in0.0 mm 0.00 in0.0 mm 0.00 in0.0 mm
05:25 AM 39.5°F4.2°C 1.7°F-16.8°C 20% Calm Calm -- 30.14 in1020.7 mb 0.00 in0.0 mm 0.00 in0.0 mm 0.00 in0.0 mm
05:30 AM 39.3°F4.1°C 1.5°F-16.9°C 20% Calm Calm 1.0 mph1.6 kmh 30.14 in1020.7 mb 0.00 in0.0 mm 0.00 in0.0 mm 0.00 in0.0 mm
05:35 AM 39.1°F3.9°C 0.2°F-17.7°C 19% Calm Calm 1.0 mph1.6 kmh 30.14 in1020.7 mb 0.00 in0.0 mm 0.00 in0.0 mm 0.00 in0.0 mm
05:40 AM 39.0°F3.9°C -1.0°F-18.3°C 18% Calm Calm 1.0 mph1.6 kmh 30.14 in1020.7 mb 0.00 in0.0 mm 0.00 in0.0 mm 0.00 in0.0 mm
05:45 AM 38.8°F3.8°C -1.2°F-18.4°C 18% Calm Calm -- 30.14 in1020.7 mb 0.00 in0.0 mm 0.00 in0.0 mm 0.00 in0.0 mm
05:50 AM 38.8°F3.8°C -3.7°F-19.8°C 16% Calm Calm -- 30.14 in1020.7 mb 0.00 in0.0 mm 0.00 in0.0 mm 0.00 in0.0 mm
05:55 AM 38.7°F3.7°C -6.5°F-21.4°C 14% Calm Calm -- 30.14 in1020.7 mb 0.00 in0.0 mm 0.00 in0.0 mm 0.00 in0.0 mm
06:00 AM 38.7°F3.7°C -8.0°F-22.2°C 13% Calm Calm -- 30.15 in1021.0 mb 0.00 in0.0 mm 0.00 in0.0 mm 0.00 in0.0 mm
06:05 AM 38.5°F3.6°C -5.2°F-20.7°C 15% Calm Calm -- 30.15 in1021.0 mb 0.00 in0.0 mm 0.00 in0.0 mm 0.00 in0.0 mm
06:10 AM 38.4°F3.6°C -5.3°F-20.7°C 15% Calm Calm -- 30.15 in1021.0 mb 0.00 in0.0 mm 0.00 in0.0 mm 0.00 in0.0 mm
06:15 AM 38.3°F3.5°C -10.0°F-23.3°C 12% Calm Calm -- 30.15 in1021.0 mb 0.00 in0.0 mm 0.00 in0.0 mm 0.00 in0.0 mm
06:20 AM 38.3°F3.5°C -11.8°F-24.3°C 11% Calm Calm 1.0 mph1.6 kmh 30.15 in1021.0 mb 0.00 in0.0 mm 0.00 in0.0 mm 0.00 in0.0 mm
06:25 AM 38.1°F3.4°C -10.2°F-23.4°C 12% Calm Calm 1.0 mph1.6 kmh 30.15 in1021.0 mb 0.00 in0.0 mm 0.00 in0.0 mm 0.00 in0.0 mm
06:30 AM 38.0°F3.3°C -8.6°F-22.6°C 13% Calm Calm 1.0 mph1.6 kmh 30.16 in1021.3 mb 0.00 in0.0 mm 0.00 in0.0 mm 0.00 in0.0 mm
06:35 AM 38.1°F3.4°C -20.8°F-29.3°C 7% Calm Calm 1.0 mph1.6 kmh 30.16 in1021.3 mb 0.00 in0.0 mm 0.00 in0.0 mm 0.00 in0.0 mm
06:40 AM 38.4°F3.6°C -43.2°F-41.8°C 2% Calm Calm 1.0 mph1.6 kmh 30.16 in1021.3 mb 0.00 in0.0 mm 0.00 in0.0 mm 0.00 in0.0 mm
06:45 AM 38.6°F3.7°C -54.7°F-48.2°C 0% 1.0 mph NW1.6 kmh NW 1.0 mph1.6 kmh 30.16 in1021.3 mb 0.00 in0.0 mm 0.00 in0.0 mm 0.00 in0.0 mm
06:50 AM 39.1°F3.9°C -54.7°F-48.2°C 0% 1.0 mph NW1.6 kmh NW 2.0 mph3.2 kmh 30.16 in1021.3 mb 0.00 in0.0 mm 0.00 in0.0 mm 0.00 in0.0 mm
06:55 AM 39.2°F4.0°C -54.7°F-48.2°C 0% 1.0 mph NW1.6 kmh NW 2.0 mph3.2 kmh 30.17 in1021.7 mb 0.00 in0.0 mm 0.00 in0.0 mm 0.00 in0.0 mm
07:00 AM 39.1°F3.9°C -54.7°F-48.2°C 0% Calm Calm 1.0 mph1.6 kmh 30.17 in1021.7 mb 0.00 in0.0 mm 0.00 in0.0 mm 0.00 in0.0 mm
07:05 AM 38.8°F3.8°C -54.7°F-48.2°C 0% Calm Calm 1.0 mph1.6 kmh 30.17 in1021.7 mb 0.00 in0.0 mm 0.00 in0.0 mm 0.00 in0.0 mm
07:10 AM 38.6°F3.7°C -54.7°F-48.2°C 0% Calm Calm -- 30.17 in1021.7 mb 0.00 in0.0 mm 0.00 in0.0 mm 0.00 in0.0 mm
07:15 AM 38.3°F3.5°C -36.3°F-37.9°C 3% Calm Calm 1.0 mph1.6 kmh 30.18 in1022.0 mb 0.00 in0.0 mm 0.00 in0.0 mm 0.00 in0.0 mm
07:20 AM 38.0°F3.3°C -31.3°F-35.2°C 4% Calm Calm 1.0 mph1.6 kmh 30.18 in1022.0 mb 0.00 in0.0 mm 0.00 in0.0 mm 0.00 in0.0 mm
07:25 AM 37.7°F3.2°C -24.0°F-31.1°C 6% Calm Calm 1.0 mph1.6 kmh 30.18 in1022.0 mb 0.00 in0.0 mm 0.00 in0.0 mm 0.00 in0.0 mm
07:30 AM 37.4°F3.0°C -18.7°F-28.2°C 8% Calm Calm 1.0 mph1.6 kmh 30.18 in1022.0 mb 0.00 in0.0 mm 0.00 in0.0 mm 0.00 in0.0 mm
07:35 AM 37.1°F2.8°C -16.7°F-27.1°C 9% Calm Calm 1.0 mph1.6 kmh 30.18 in1022.0 mb 0.00 in0.0 mm 0.00 in0.0 mm 0.00 in0.0 mm
07:40 AM 37.0°F2.8°C -21.6°F-29.8°C 7% Calm Calm -- 30.18 in1022.0 mb 0.00 in0.0 mm 0.00 in0.0 mm 0.00 in0.0 mm
07:45 AM 36.9°F2.7°C -32.1°F-35.6°C 4% Calm Calm -- 30.18 in1022.0 mb 0.00 in0.0 mm 0.00 in0.0 mm 0.00 in0.0 mm
07:50 AM 36.8°F2.7°C -37.3°F-38.5°C 3% Calm Calm -- 30.18 in1022.0 mb 0.00 in0.0 mm 0.00 in0.0 mm 0.00 in0.0 mm
07:55 AM 36.8°F2.7°C -44.3°F-42.4°C 2% Calm Calm -- 30.18 in1022.0 mb 0.00 in0.0 mm 0.00 in0.0 mm 0.00 in0.0 mm
08:00 AM 36.9°F2.7°C -55.7°F-48.7°C 0% Calm Calm -- 30.18 in1022.0 mb 0.00 in0.0 mm 0.00 in0.0 mm 0.00 in0.0 mm
08:05 AM 37.1°F2.8°C -55.7°F-48.7°C 0% Calm Calm 1.0 mph1.6 kmh 30.18 in1022.0 mb 0.00 in0.0 mm 0.00 in0.0 mm 0.00 in0.0 mm
08:10 AM 37.2°F2.9°C -55.7°F-48.7°C 0% 1.0 mph NW1.6 kmh NW 2.0 mph3.2 kmh 30.18 in1022.0 mb 0.00 in0.0 mm 0.00 in0.0 mm 0.00 in0.0 mm
08:15 AM 37.2°F2.9°C -55.7°F-48.7°C 0% 1.0 mph NW1.6 kmh NW 2.0 mph3.2 kmh 30.19 in1022.4 mb 0.00 in0.0 mm 0.00 in0.0 mm 0.00 in0.0 mm
08:20 AM 37.4°F3.0°C -55.7°F-48.7°C 0% 1.0 mph NW1.6 kmh NW 2.0 mph3.2 kmh 30.19 in1022.4 mb 0.00 in0.0 mm 0.00 in0.0 mm 0.00 in0.0 mm
08:25 AM 37.9°F3.3°C -55.7°F-48.7°C 0% 1.0 mph NW1.6 kmh NW 1.0 mph1.6 kmh 30.18 in1022.0 mb 0.00 in0.0 mm 0.00 in0.0 mm 0.00 in0.0 mm
08:30 AM 38.5°F3.6°C -55.7°F-48.7°C 0% 1.0 mph NW1.6 kmh NW 2.0 mph3.2 kmh 30.19 in1022.4 mb 0.00 in0.0 mm 0.00 in0.0 mm 0.00 in0.0 mm
08:35 AM 39.3°F4.1°C -55.7°F-48.7°C 0% 1.0 mph NW1.6 kmh NW 2.0 mph3.2 kmh 30.19 in1022.4 mb 0.00 in0.0 mm 0.00 in0.0 mm 0.00 in0.0 mm
08:40 AM 40.0°F4.4°C -55.7°F-48.7°C 0% 1.0 mph NW1.6 kmh NW 3.0 mph4.8 kmh 30.19 in1022.4 mb 0.00 in0.0 mm 0.00 in0.0 mm 0.00 in0.0 mm
08:45 AM 41.2°F5.1°C -55.7°F-48.7°C 0% 2.0 mph NNW3.2 kmh NNW 3.0 mph4.8 kmh 30.19 in1022.4 mb 0.00 in0.0 mm 0.00 in0.0 mm 0.00 in0.0 mm
08:50 AM 42.5°F5.8°C -55.7°F-48.7°C 0% 2.0 mph N3.2 kmh N 4.0 mph6.4 kmh 30.19 in1022.4 mb 0.00 in0.0 mm 0.00 in0.0 mm 0.00 in0.0 mm
08:55 AM 43.6°F6.4°C -55.7°F-48.7°C 0% 2.0 mph N3.2 kmh N 5.0 mph8.0 kmh 30.20 in1022.7 mb 0.00 in0.0 mm 0.00 in0.0 mm 0.00 in0.0 mm
09:00 AM 44.7°F7.1°C -55.7°F-48.7°C 0% 2.0 mph N3.2 kmh N 5.0 mph8.0 kmh 30.20 in1022.7 mb 0.00 in0.0 mm 0.00 in0.0 mm 0.00 in0.0 mm
09:05 AM 46.3°F7.9°C -7.4°F-21.9°C 10% 2.0 mph N3.2 kmh N 5.0 mph8.0 kmh 30.20 in1022.7 mb 0.00 in0.0 mm 0.00 in0.0 mm 0.00 in0.0 mm
09:10 AM 47.8°F8.8°C 34.6°F1.4°C 60% 3.0 mph N4.8 kmh N 6.0 mph9.7 kmh 30.20 in1022.7 mb 0.00 in0.0 mm 0.00 in0.0 mm 0.00 in0.0 mm
09:15 AM 48.8°F9.3°C 39.1°F3.9°C 69% 3.0 mph N4.8 kmh N 6.0 mph9.7 kmh 30.20 in1022.7 mb 0.00 in0.0 mm 0.00 in0.0 mm 0.00 in0.0 mm
09:20 AM 49.8°F9.9°C 40.0°F4.4°C 69% 3.0 mph N4.8 kmh N 6.0 mph9.7 kmh 30.20 in1022.7 mb 0.00 in0.0 mm 0.00 in0.0 mm 0.00 in0.0 mm
09:25 AM 50.9°F10.5°C 40.7°F4.8°C 68% 3.0 mph N4.8 kmh N 5.0 mph8.0 kmh 30.20 in1022.7 mb 0.00 in0.0 mm 0.00 in0.0 mm 0.00 in0.0 mm
09:30 AM 51.9°F11.1°C 40.9°F4.9°C 66% 3.0 mph N4.8 kmh N 6.0 mph9.7 kmh 30.20 in1022.7 mb 0.00 in0.0 mm 0.00 in0.0 mm 0.00 in0.0 mm
09:35 AM 52.9°F11.6°C 40.2°F4.6°C 62% 3.0 mph NNE4.8 kmh NNE 7.0 mph11.3 kmh 30.21 in1023.0 mb 0.00 in0.0 mm 0.00 in0.0 mm 0.00 in0.0 mm
09:40 AM 53.7°F12.1°C 39.3°F4.1°C 58% 4.0 mph NNE6.4 kmh NNE 7.0 mph11.3 kmh 30.21 in1023.0 mb 0.00 in0.0 mm 0.00 in0.0 mm 0.00 in0.0 mm
09:45 AM 54.4°F12.4°C 38.1°F3.4°C 54% 3.0 mph NNE4.8 kmh NNE 6.0 mph9.7 kmh 30.21 in1023.0 mb 0.00 in0.0 mm 0.00 in0.0 mm 0.00 in0.0 mm
09:50 AM 54.9°F12.7°C 38.6°F3.7°C 54% 3.0 mph N4.8 kmh N 6.0 mph9.7 kmh 30.21 in1023.0 mb 0.00 in0.0 mm 0.00 in0.0 mm 0.00 in0.0 mm
09:55 AM 55.6°F13.1°C 39.2°F4.0°C 54% 3.0 mph NNE4.8 kmh NNE 6.0 mph9.7 kmh 30.21 in1023.0 mb 0.00 in0.0 mm 0.00 in0.0 mm 0.00 in0.0 mm
10:00 AM 56.4°F13.6°C 39.0°F3.9°C 52% 3.0 mph NE4.8 kmh NE 6.0 mph9.7 kmh 30.21 in1023.0 mb 0.00 in0.0 mm 0.00 in0.0 mm 0.00 in0.0 mm
10:05 AM 57.1°F13.9°C 38.1°F3.4°C 49% 3.0 mph NNE4.8 kmh NNE 8.0 mph12.9 kmh 30.21 in1023.0 mb 0.00 in0.0 mm 0.00 in0.0 mm 0.00 in0.0 mm
10:10 AM 57.7°F14.3°C 37.6°F3.1°C 47% 3.0 mph NE4.8 kmh NE 8.0 mph12.9 kmh 30.21 in1023.0 mb 0.00 in0.0 mm 0.00 in0.0 mm 0.00 in0.0 mm
10:15 AM 58.2°F14.6°C 37.5°F3.1°C 46% 4.0 mph NNE6.4 kmh NNE 8.0 mph12.9 kmh 30.21 in1023.0 mb 0.00 in0.0 mm 0.00 in0.0 mm 0.00 in0.0 mm
10:20 AM 58.7°F14.8°C 37.4°F3.0°C 45% 3.0 mph N4.8 kmh N 7.0 mph11.3 kmh 30.22 in1023.4 mb 0.00 in0.0 mm 0.00 in0.0 mm 0.00 in0.0 mm
10:25 AM 59.3°F15.2°C 37.9°F3.3°C 45% 3.0 mph NNE4.8 kmh NNE 7.0 mph11.3 kmh 30.21 in1023.0 mb 0.00 in0.0 mm 0.00 in0.0 mm 0.00 in0.0 mm
10:30 AM 59.8°F15.4°C 36.6°F2.6°C 42% 3.0 mph NE4.8 kmh NE 8.0 mph12.9 kmh 30.22 in1023.4 mb 0.00 in0.0 mm 0.00 in0.0 mm 0.00 in0.0 mm
10:35 AM 60.2°F15.7°C 35.8°F2.1°C 40% 4.0 mph NNE6.4 kmh NNE 8.0 mph12.9 kmh 30.22 in1023.4 mb 0.00 in0.0 mm 0.00 in0.0 mm 0.00 in0.0 mm
10:40 AM 60.5°F15.8°C 34.7°F1.5°C 38% 4.0 mph N6.4 kmh N 7.0 mph11.3 kmh 30.21 in1023.0 mb 0.00 in0.0 mm 0.00 in0.0 mm 0.00 in0.0 mm
10:45 AM 60.9°F16.1°C 35.1°F1.7°C 38% 4.0 mph N6.4 kmh N 7.0 mph11.3 kmh 30.21 in1023.0 mb 0.00 in0.0 mm 0.00 in0.0 mm 0.00 in0.0 mm
10:50 AM 61.3°F16.3°C 35.5°F1.9°C 38% 4.0 mph N6.4 kmh N 7.0 mph11.3 kmh 30.21 in1023.0 mb 0.00 in0.0 mm 0.00 in0.0 mm 0.00 in0.0 mm
10:55 AM 61.6°F16.4°C 34.4°F1.3°C 36% 4.0 mph N6.4 kmh N 9.0 mph14.5 kmh 30.21 in1023.0 mb 0.00 in0.0 mm 0.00 in0.0 mm 0.00 in0.0 mm
11:00 AM 62.1°F16.7°C 34.1°F1.2°C 35% 4.0 mph N6.4 kmh N 9.0 mph14.5 kmh 30.21 in1023.0 mb 0.00 in0.0 mm 0.00 in0.0 mm 0.00 in0.0 mm
11:05 AM 62.4°F16.9°C 32.9°F0.5°C 33% 5.0 mph NNE8.0 kmh NNE 9.0 mph14.5 kmh 30.21 in1023.0 mb 0.00 in0.0 mm 0.00 in0.0 mm 0.00 in0.0 mm
11:10 AM 62.2°F16.8°C 33.5°F0.8°C 34% 5.0 mph N8.0 kmh N 9.0 mph14.5 kmh 30.21 in1023.0 mb 0.00 in0.0 mm 0.00 in0.0 mm 0.00 in0.0 mm
11:15 AM 62.4°F16.9°C 34.4°F1.3°C 35% 4.0 mph NNW6.4 kmh NNW 9.0 mph14.5 kmh 30.21 in1023.0 mb 0.00 in0.0 mm 0.00 in0.0 mm 0.00 in0.0 mm
11:20 AM 62.8°F17.1°C 33.2°F0.7°C 33% 4.0 mph NNW6.4 kmh NNW 9.0 mph14.5 kmh 30.21 in1023.0 mb 0.00 in0.0 mm 0.00 in0.0 mm 0.00 in0.0 mm
11:25 AM 63.1°F17.3°C 34.3°F1.3°C 34% 4.0 mph NNW6.4 kmh NNW 9.0 mph14.5 kmh 30.21 in1023.0 mb 0.00 in0.0 mm 0.00 in0.0 mm 0.00 in0.0 mm
11:30 AM 63.5°F17.5°C 34.6°F1.4°C 34% 4.0 mph N6.4 kmh N 7.0 mph11.3 kmh 30.21 in1023.0 mb 0.00 in0.0 mm 0.00 in0.0 mm 0.00 in0.0 mm
11:35 AM 64.0°F17.8°C 34.3°F1.3°C 33% 5.0 mph N8.0 kmh N 10.0 mph16.1 kmh 30.21 in1023.0 mb 0.00 in0.0 mm 0.00 in0.0 mm 0.00 in0.0 mm
11:40 AM 64.3°F17.9°C 33.8°F1.0°C 32% 4.0 mph N6.4 kmh N 10.0 mph16.1 kmh 30.21 in1023.0 mb 0.00 in0.0 mm 0.00 in0.0 mm 0.00 in0.0 mm
11:45 AM 64.9°F18.3°C 35.1°F1.7°C 33% 4.0 mph N6.4 kmh N 7.0 mph11.3 kmh 30.21 in1023.0 mb 0.00 in0.0 mm 0.00 in0.0 mm 0.00 in0.0 mm
11:50 AM 65.0°F18.3°C 33.6°F0.9°C 31% 4.0 mph N6.4 kmh N 10.0 mph16.1 kmh 30.21 in1023.0 mb 0.00 in0.0 mm 0.00 in0.0 mm 0.00 in0.0 mm
11:55 AM 65.1°F18.4°C 34.5°F1.4°C 32% 4.0 mph NNW6.4 kmh NNW 10.0 mph16.1 kmh 30.21 in1023.0 mb 0.00 in0.0 mm 0.00 in0.0 mm 0.00 in0.0 mm
12:00 PM 65.2°F18.4°C 34.6°F1.4°C 32% 3.0 mph NW4.8 kmh NW 7.0 mph11.3 kmh 30.21 in1023.0 mb 0.00 in0.0 mm 0.00 in0.0 mm 0.00 in0.0 mm
12:05 PM 65.6°F18.7°C 34.1°F1.2°C 31% 4.0 mph NW6.4 kmh NW 8.0 mph12.9 kmh 30.20 in1022.7 mb 0.00 in0.0 mm 0.00 in0.0 mm 0.00 in0.0 mm
12:10 PM 65.5°F18.6°C 34.8°F1.6°C 32% 5.0 mph NW8.0 kmh NW 8.0 mph12.9 kmh 30.20 in1022.7 mb 0.00 in0.0 mm 0.00 in0.0 mm 0.00 in0.0 mm
12:15 PM 65.6°F18.7°C 34.1°F1.2°C 31% 4.0 mph NW6.4 kmh NW 8.0 mph12.9 kmh 30.21 in1023.0 mb 0.00 in0.0 mm 0.00 in0.0 mm 0.00 in0.0 mm
12:20 PM 65.7°F18.7°C 33.4°F0.8°C 30% 3.0 mph NW4.8 kmh NW 7.0 mph11.3 kmh 30.21 in1023.0 mb 0.00 in0.0 mm 0.00 in0.0 mm 0.00 in0.0 mm
12:25 PM 66.2°F19.0°C 33.8°F1.0°C 30% 3.0 mph NW4.8 kmh NW 7.0 mph11.3 kmh 30.20 in1022.7 mb 0.00 in0.0 mm 0.00 in0.0 mm 0.00 in0.0 mm
12:30 PM 66.5°F19.2°C 34.1°F1.2°C 30% 2.0 mph NW3.2 kmh NW 6.0 mph9.7 kmh 30.20 in1022.7 mb 0.00 in0.0 mm 0.00 in0.0 mm 0.00 in0.0 mm
12:35 PM 66.9°F19.4°C 36.1°F2.3°C 32% 3.0 mph NW4.8 kmh NW 7.0 mph11.3 kmh 30.20 in1022.7 mb 0.00 in0.0 mm 0.00 in0.0 mm 0.00 in0.0 mm
12:40 PM 67.0°F19.4°C 32.8°F0.4°C 28% 4.0 mph NW6.4 kmh NW 8.0 mph12.9 kmh 30.20 in1022.7 mb 0.00 in0.0 mm 0.00 in0.0 mm 0.00 in0.0 mm
12:45 PM 67.0°F19.4°C 34.5°F1.4°C 30% 4.0 mph NW6.4 kmh NW 8.0 mph12.9 kmh 30.20 in1022.7 mb 0.00 in0.0 mm 0.00 in0.0 mm 0.00 in0.0 mm
12:50 PM 67.7°F19.8°C 33.4°F0.8°C 28% 3.0 mph NW4.8 kmh NW 8.0 mph12.9 kmh 30.20 in1022.7 mb 0.00 in0.0 mm 0.00 in0.0 mm 0.00 in0.0 mm
12:55 PM 68.0°F20.0°C 33.7°F0.9°C 28% 2.0 mph WNW3.2 kmh WNW 5.0 mph8.0 kmh 30.20 in1022.7 mb 0.00 in0.0 mm 0.00 in0.0 mm 0.00 in0.0 mm
01:00 PM 68.1°F20.1°C 34.6°F1.4°C 29% 3.0 mph NW4.8 kmh NW 7.0 mph11.3 kmh 30.20 in1022.7 mb 0.00 in0.0 mm 0.00 in0.0 mm 0.00 in0.0 mm
01:05 PM 68.3°F20.2°C 35.6°F2.0°C 30% 3.0 mph NNW4.8 kmh NNW 7.0 mph11.3 kmh 30.19 in1022.4 mb 0.00 in0.0 mm 0.00 in0.0 mm 0.00 in0.0 mm
01:10 PM 68.4°F20.2°C 34.9°F1.6°C 29% 2.0 mph NW3.2 kmh NW 6.0 mph9.7 kmh 30.19 in1022.4 mb 0.00 in0.0 mm 0.00 in0.0 mm 0.00 in0.0 mm
01:15 PM 68.9°F20.5°C 36.2°F2.3°C 30% 2.0 mph NNW3.2 kmh NNW 4.0 mph6.4 kmh 30.18 in1022.0 mb 0.00 in0.0 mm 0.00 in0.0 mm 0.00 in0.0 mm
01:20 PM 69.1°F20.6°C 34.6°F1.4°C 28% 2.0 mph WSW3.2 kmh WSW 6.0 mph9.7 kmh 30.18 in1022.0 mb 0.00 in0.0 mm 0.00 in0.0 mm 0.00 in0.0 mm
01:25 PM 69.1°F20.6°C 34.6°F1.4°C 28% 2.0 mph WNW3.2 kmh WNW 6.0 mph9.7 kmh 30.18 in1022.0 mb 0.00 in0.0 mm 0.00 in0.0 mm 0.00 in0.0 mm
01:30 PM 69.4°F20.8°C 36.6°F2.6°C 30% 2.0 mph NE3.2 kmh NE 5.0 mph8.0 kmh 30.17 in1021.7 mb 0.00 in0.0 mm 0.00 in0.0 mm 0.00 in0.0 mm
01:35 PM 69.7°F20.9°C 35.1°F1.7°C 28% 3.0 mph N4.8 kmh N 7.0 mph11.3 kmh 30.17 in1021.7 mb 0.00 in0.0 mm 0.00 in0.0 mm 0.00 in0.0 mm
01:40 PM 70.1°F21.2°C 35.5°F1.9°C 28% 3.0 mph NW4.8 kmh NW 10.0 mph16.1 kmh 30.16 in1021.3 mb 0.00 in0.0 mm 0.00 in0.0 mm 0.00 in0.0 mm
01:45 PM 70.4°F21.3°C 35.7°F2.1°C 28% 3.0 mph NNW4.8 kmh NNW 10.0 mph16.1 kmh 30.16 in1021.3 mb 0.00 in0.0 mm 0.00 in0.0 mm 0.00 in0.0 mm
01:50 PM 70.1°F21.2°C 34.5°F1.4°C 27% 4.0 mph NNW6.4 kmh NNW 8.0 mph12.9 kmh 30.16 in1021.3 mb 0.00 in0.0 mm 0.00 in0.0 mm 0.00 in0.0 mm
01:55 PM 70.3°F21.3°C 33.8°F1.0°C 26% 4.0 mph NNW6.4 kmh NNW 9.0 mph14.5 kmh 30.16 in1021.3 mb 0.00 in0.0 mm 0.00 in0.0 mm 0.00 in0.0 mm
02:00 PM 70.6°F21.4°C 35.0°F1.7°C 27% 3.0 mph NNW4.8 kmh NNW 9.0 mph14.5 kmh 30.15 in1021.0 mb 0.00 in0.0 mm 0.00 in0.0 mm 0.00 in0.0 mm
02:05 PM 71.0°F21.7°C 35.3°F1.8°C 27% 4.0 mph N6.4 kmh N 8.0 mph12.9 kmh 30.15 in1021.0 mb 0.00 in0.0 mm 0.00 in0.0 mm 0.00 in0.0 mm
02:10 PM 71.5°F21.9°C 34.8°F1.6°C 26% 4.0 mph N6.4 kmh N 8.0 mph12.9 kmh 30.14 in1020.7 mb 0.00 in0.0 mm 0.00 in0.0 mm 0.00 in0.0 mm
02:15 PM 72.0°F22.2°C 35.2°F1.8°C 26% 3.0 mph N4.8 kmh N 7.0 mph11.3 kmh 30.14 in1020.7 mb 0.00 in0.0 mm 0.00 in0.0 mm 0.00 in0.0 mm
02:20 PM 72.1°F22.3°C 35.3°F1.8°C 26% 3.0 mph N4.8 kmh N 7.0 mph11.3 kmh 30.14 in1020.7 mb 0.00 in0.0 mm 0.00 in0.0 mm 0.00 in0.0 mm
02:25 PM 72.4°F22.4°C 35.6°F2.0°C 26% 3.0 mph N4.8 kmh N 7.0 mph11.3 kmh 30.14 in1020.7 mb 0.00 in0.0 mm 0.00 in0.0 mm 0.00 in0.0 mm
02:30 PM 72.6°F22.6°C 35.7°F2.1°C 26% 2.0 mph N3.2 kmh N 5.0 mph8.0 kmh 30.14 in1020.7 mb 0.00 in0.0 mm 0.00 in0.0 mm 0.00 in0.0 mm
02:35 PM 72.2°F22.3°C 35.4°F1.9°C 26% 2.0 mph NNW3.2 kmh NNW 5.0 mph8.0 kmh 30.13 in1020.3 mb 0.00 in0.0 mm 0.00 in0.0 mm 0.00 in0.0 mm
02:40 PM 72.4°F22.4°C 32.5°F0.3°C 23% 3.0 mph WSW4.8 kmh WSW 8.0 mph12.9 kmh 30.13 in1020.3 mb 0.00 in0.0 mm 0.00 in0.0 mm 0.00 in0.0 mm
02:45 PM 72.6°F22.6°C 31.5°F-0.3°C 22% 3.0 mph SSW4.8 kmh SSW 8.0 mph12.9 kmh 30.12 in1020.0 mb 0.00 in0.0 mm 0.00 in0.0 mm 0.00 in0.0 mm
02:50 PM 72.9°F22.7°C 34.0°F1.1°C 24% 3.0 mph SW4.8 kmh SW 6.0 mph9.7 kmh 30.12 in1020.0 mb 0.00 in0.0 mm 0.00 in0.0 mm 0.00 in0.0 mm
02:55 PM 73.2°F22.9°C 32.1°F0.1°C 22% 3.0 mph SW4.8 kmh SW 6.0 mph9.7 kmh 30.12 in1020.0 mb 0.00 in0.0 mm 0.00 in0.0 mm 0.00 in0.0 mm
03:00 PM 73.3°F22.9°C 35.3°F1.8°C 25% 3.0 mph WSW4.8 kmh WSW 6.0 mph9.7 kmh 30.12 in1020.0 mb 0.00 in0.0 mm 0.00 in0.0 mm 0.00 in0.0 mm
03:05 PM 73.7°F23.2°C 33.6°F0.9°C 23% 3.0 mph WNW4.8 kmh WNW 6.0 mph9.7 kmh 30.12 in1020.0 mb 0.00 in0.0 mm 0.00 in0.0 mm 0.00 in0.0 mm
03:10 PM 73.8°F23.2°C 33.7°F0.9°C 23% 4.0 mph W6.4 kmh W 7.0 mph11.3 kmh 30.11 in1019.6 mb 0.00 in0.0 mm 0.00 in0.0 mm 0.00 in0.0 mm
03:15 PM 74.0°F23.3°C 33.8°F1.0°C 23% 4.0 mph WSW6.4 kmh WSW 8.0 mph12.9 kmh 30.11 in1019.6 mb 0.00 in0.0 mm 0.00 in0.0 mm 0.00 in0.0 mm
03:20 PM 73.9°F23.3°C 32.6°F0.3°C 22% 3.0 mph WNW4.8 kmh WNW 8.0 mph12.9 kmh 30.11 in1019.6 mb 0.00 in0.0 mm 0.00 in0.0 mm 0.00 in0.0 mm
03:25 PM 73.9°F23.3°C 33.7°F0.9°C 23% 4.0 mph NNW6.4 kmh NNW 7.0 mph11.3 kmh 30.10 in1019.3 mb 0.00 in0.0 mm 0.00 in0.0 mm 0.00 in0.0 mm
03:30 PM 74.2°F23.4°C 34.0°F1.1°C 23% 3.0 mph NNW4.8 kmh NNW 7.0 mph11.3 kmh 30.10 in1019.3 mb 0.00 in0.0 mm 0.00 in0.0 mm 0.00 in0.0 mm
03:35 PM 74.2°F23.4°C 34.0°F1.1°C 23% 3.0 mph W4.8 kmh W 7.0 mph11.3 kmh 30.10 in1019.3 mb 0.00 in0.0 mm 0.00 in0.0 mm 0.00 in0.0 mm
03:40 PM 74.6°F23.7°C 35.4°F1.9°C 24% 3.0 mph SW4.8 kmh SW 7.0 mph11.3 kmh 30.10 in1019.3 mb 0.00 in0.0 mm 0.00 in0.0 mm 0.00 in0.0 mm
03:45 PM 74.9°F23.8°C 36.7°F2.6°C 25% 2.0 mph SW3.2 kmh SW 7.0 mph11.3 kmh 30.09 in1019.0 mb 0.00 in0.0 mm 0.00 in0.0 mm 0.00 in0.0 mm
03:50 PM 75.4°F24.1°C 36.1°F2.3°C 24% 2.0 mph WSW3.2 kmh WSW 5.0 mph8.0 kmh 30.09 in1019.0 mb 0.00 in0.0 mm 0.00 in0.0 mm 0.00 in0.0 mm
03:55 PM 75.9°F24.4°C 35.4°F1.9°C 23% 3.0 mph SW4.8 kmh SW 6.0 mph9.7 kmh 30.09 in1019.0 mb 0.00 in0.0 mm 0.00 in0.0 mm 0.00 in0.0 mm
04:00 PM 76.0°F24.4°C 34.4°F1.3°C 22% 3.0 mph SW4.8 kmh SW 6.0 mph9.7 kmh 30.09 in1019.0 mb 0.00 in0.0 mm 0.00 in0.0 mm 0.00 in0.0 mm
04:05 PM 75.5°F24.2°C 35.1°F1.7°C 23% 4.0 mph WSW6.4 kmh WSW 9.0 mph14.5 kmh 30.09 in1019.0 mb 0.00 in0.0 mm 0.00 in0.0 mm 0.00 in0.0 mm
04:10 PM 75.3°F24.1°C 33.8°F1.0°C 22% 3.0 mph WNW4.8 kmh WNW 9.0 mph14.5 kmh 30.09 in1019.0 mb 0.00 in0.0 mm 0.00 in0.0 mm 0.00 in0.0 mm
04:15 PM 75.1°F23.9°C 33.6°F0.9°C 22% 3.0 mph W4.8 kmh W 7.0 mph11.3 kmh 30.08 in1018.6 mb 0.00 in0.0 mm 0.00 in0.0 mm 0.00 in0.0 mm
04:20 PM 75.1°F23.9°C 33.6°F0.9°C 22% 3.0 mph WSW4.8 kmh WSW 7.0 mph11.3 kmh 30.08 in1018.6 mb 0.00 in0.0 mm 0.00 in0.0 mm 0.00 in0.0 mm
04:25 PM 75.3°F24.1°C 34.9°F1.6°C 23% 3.0 mph SW4.8 kmh SW 6.0 mph9.7 kmh 30.08 in1018.6 mb 0.00 in0.0 mm 0.00 in0.0 mm 0.00 in0.0 mm
04:30 PM 75.3°F24.1°C 33.8°F1.0°C 22% 4.0 mph WSW6.4 kmh WSW 7.0 mph11.3 kmh 30.08 in1018.6 mb 0.00 in0.0 mm 0.00 in0.0 mm 0.00 in0.0 mm
04:35 PM 74.9°F23.8°C 34.6°F1.4°C 23% 4.0 mph WSW6.4 kmh WSW 7.0 mph11.3 kmh 30.08 in1018.6 mb 0.00 in0.0 mm 0.00 in0.0 mm 0.00 in0.0 mm
04:40 PM 75.2°F24.0°C 34.8°F1.6°C 23% 3.0 mph WSW4.8 kmh WSW 6.0 mph9.7 kmh 30.08 in1018.6 mb 0.00 in0.0 mm 0.00 in0.0 mm 0.00 in0.0 mm
04:45 PM 75.7°F24.3°C 34.1°F1.2°C 22% 2.0 mph WSW3.2 kmh WSW 7.0 mph11.3 kmh 30.08 in1018.6 mb 0.00 in0.0 mm 0.00 in0.0 mm 0.00 in0.0 mm
04:50 PM 75.8°F24.3°C 34.2°F1.2°C 22% 3.0 mph WSW4.8 kmh WSW 7.0 mph11.3 kmh 30.08 in1018.6 mb 0.00 in0.0 mm 0.00 in0.0 mm 0.00 in0.0 mm
04:55 PM 75.7°F24.3°C 34.1°F1.2°C 22% 3.0 mph WSW4.8 kmh WSW 8.0 mph12.9 kmh 30.08 in1018.6 mb 0.00 in0.0 mm 0.00 in0.0 mm 0.00 in0.0 mm
05:00 PM 75.7°F24.3°C 33.0°F0.6°C 21% 4.0 mph WSW6.4 kmh WSW 8.0 mph12.9 kmh 30.08 in1018.6 mb 0.00 in0.0 mm 0.00 in0.0 mm 0.00 in0.0 mm
05:05 PM 76.0°F24.4°C 33.2°F0.7°C 21% 4.0 mph WSW6.4 kmh WSW 7.0 mph11.3 kmh 30.08 in1018.6 mb 0.00 in0.0 mm 0.00 in0.0 mm 0.00 in0.0 mm
05:10 PM 76.3°F24.6°C 33.5°F0.8°C 21% 3.0 mph WSW4.8 kmh WSW 6.0 mph9.7 kmh 30.08 in1018.6 mb 0.00 in0.0 mm 0.00 in0.0 mm 0.00 in0.0 mm
05:15 PM 76.2°F24.6°C 33.4°F0.8°C 21% 3.0 mph WNW4.8 kmh WNW 8.0 mph12.9 kmh 30.08 in1018.6 mb 0.00 in0.0 mm 0.00 in0.0 mm 0.00 in0.0 mm
05:20 PM 75.9°F24.4°C 31.9°F-0.1°C 20% 4.0 mph WNW6.4 kmh WNW 8.0 mph12.9 kmh 30.08 in1018.6 mb 0.00 in0.0 mm 0.00 in0.0 mm 0.00 in0.0 mm
05:25 PM 76.3°F24.6°C 33.5°F0.8°C 21% 3.0 mph W4.8 kmh W 8.0 mph12.9 kmh 30.08 in1018.6 mb 0.00 in0.0 mm 0.00 in0.0 mm 0.00 in0.0 mm
05:30 PM 76.5°F24.7°C 32.4°F0.2°C 20% 2.0 mph WSW3.2 kmh WSW 6.0 mph9.7 kmh 30.08 in1018.6 mb 0.00 in0.0 mm 0.00 in0.0 mm 0.00 in0.0 mm
05:35 PM 76.4°F24.7°C 33.6°F0.9°C 21% 3.0 mph W4.8 kmh W 7.0 mph11.3 kmh 30.08 in1018.6 mb 0.00 in0.0 mm 0.00 in0.0 mm 0.00 in0.0 mm
05:40 PM 76.0°F24.4°C 34.4°F1.3°C 22% 3.0 mph W4.8 kmh W 7.0 mph11.3 kmh 30.08 in1018.6 mb 0.00 in0.0 mm 0.00 in0.0 mm 0.00 in0.0 mm
05:45 PM 76.0°F24.4°C 34.4°F1.3°C 22% 3.0 mph W4.8 kmh W 7.0 mph11.3 kmh 30.08 in1018.6 mb 0.00 in0.0 mm 0.00 in0.0 mm 0.00 in0.0 mm
05:50 PM 76.0°F24.4°C 34.4°F1.3°C 22% 3.0 mph WNW4.8 kmh WNW 7.0 mph11.3 kmh 30.08 in1018.6 mb 0.00 in0.0 mm 0.00 in0.0 mm 0.00 in0.0 mm
05:55 PM 75.6°F24.2°C 34.1°F1.2°C 22% 2.0 mph NW3.2 kmh NW 7.0 mph11.3 kmh 30.08 in1018.6 mb 0.00 in0.0 mm 0.00 in0.0 mm 0.00 in0.0 mm
06:00 PM 75.2°F24.0°C 34.8°F1.6°C 23% 3.0 mph W4.8 kmh W 7.0 mph11.3 kmh 30.08 in1018.6 mb 0.00 in0.0 mm 0.00 in0.0 mm 0.00 in0.0 mm
06:05 PM 74.5°F23.6°C 34.2°F1.2°C 23% 3.0 mph W4.8 kmh W 7.0 mph11.3 kmh 30.08 in1018.6 mb 0.00 in0.0 mm 0.00 in0.0 mm 0.00 in0.0 mm
06:10 PM 74.0°F23.3°C 33.8°F1.0°C 23% 4.0 mph W6.4 kmh W 8.0 mph12.9 kmh 30.08 in1018.6 mb 0.00 in0.0 mm 0.00 in0.0 mm 0.00 in0.0 mm
06:15 PM 73.9°F23.3°C 33.7°F0.9°C 23% 3.0 mph WSW4.8 kmh WSW 8.0 mph12.9 kmh 30.08 in1018.6 mb 0.00 in0.0 mm 0.00 in0.0 mm 0.00 in0.0 mm
06:20 PM 73.8°F23.2°C 33.7°F0.9°C 23% 2.0 mph W3.2 kmh W 4.0 mph6.4 kmh 30.09 in1019.0 mb 0.00 in0.0 mm 0.00 in0.0 mm 0.00 in0.0 mm
06:25 PM 73.0°F22.8°C 34.1°F1.2°C 24% 2.0 mph WSW3.2 kmh WSW 6.0 mph9.7 kmh 30.08 in1018.6 mb 0.00 in0.0 mm 0.00 in0.0 mm 0.00 in0.0 mm
06:30 PM 72.0°F22.2°C 33.2°F0.7°C 24% 4.0 mph WSW6.4 kmh WSW 9.0 mph14.5 kmh 30.09 in1019.0 mb 0.00 in0.0 mm 0.00 in0.0 mm 0.00 in0.0 mm
06:35 PM 71.0°F21.7°C 32.4°F0.2°C 24% 4.0 mph SW6.4 kmh SW 9.0 mph14.5 kmh 30.09 in1019.0 mb 0.00 in0.0 mm 0.00 in0.0 mm 0.00 in0.0 mm
06:40 PM 70.5°F21.4°C 33.0°F0.6°C 25% 3.0 mph WSW4.8 kmh WSW 9.0 mph14.5 kmh 30.09 in1019.0 mb 0.00 in0.0 mm 0.00 in0.0 mm 0.00 in0.0 mm
06:45 PM 70.2°F21.2°C 34.6°F1.4°C 27% 3.0 mph W4.8 kmh W 6.0 mph9.7 kmh 30.09 in1019.0 mb 0.00 in0.0 mm 0.00 in0.0 mm 0.00 in0.0 mm
06:50 PM 69.7°F20.9°C 34.2°F1.2°C 27% 3.0 mph WSW4.8 kmh WSW 9.0 mph14.5 kmh 30.09 in1019.0 mb 0.00 in0.0 mm 0.00 in0.0 mm 0.00 in0.0 mm
06:55 PM 69.2°F20.7°C 34.7°F1.5°C 28% 3.0 mph WSW4.8 kmh WSW 9.0 mph14.5 kmh 30.10 in1019.3 mb 0.00 in0.0 mm 0.00 in0.0 mm 0.00 in0.0 mm
07:00 PM 68.7°F20.4°C 35.1°F1.7°C 29% 3.0 mph W4.8 kmh W 9.0 mph14.5 kmh 30.10 in1019.3 mb 0.00 in0.0 mm 0.00 in0.0 mm 0.00 in0.0 mm
07:05 PM 68.1°F20.1°C 35.5°F1.9°C 30% 3.0 mph W4.8 kmh W 9.0 mph14.5 kmh 30.10 in1019.3 mb 0.00 in0.0 mm 0.00 in0.0 mm 0.00 in0.0 mm
07:10 PM 67.5°F19.7°C 35.0°F1.7°C 30% 3.0 mph WSW4.8 kmh WSW 6.0 mph9.7 kmh 30.09 in1019.0 mb 0.00 in0.0 mm 0.00 in0.0 mm 0.00 in0.0 mm
07:15 PM 66.8°F19.3°C 35.2°F1.8°C 31% 3.0 mph WSW4.8 kmh WSW 8.0 mph12.9 kmh 30.10 in1019.3 mb 0.00 in0.0 mm 0.00 in0.0 mm 0.00 in0.0 mm
07:20 PM 66.2°F19.0°C 34.7°F1.5°C 31% 4.0 mph WSW6.4 kmh WSW 8.0 mph12.9 kmh 30.10 in1019.3 mb 0.00 in0.0 mm 0.00 in0.0 mm 0.00 in0.0 mm
07:25 PM 65.6°F18.7°C 33.3°F0.7°C 30% 4.0 mph W6.4 kmh W 13.0 mph20.9 kmh 30.10 in1019.3 mb 0.00 in0.0 mm 0.00 in0.0 mm 0.00 in0.0 mm
07:30 PM 64.9°F18.3°C 31.9°F-0.1°C 29% 5.0 mph WNW8.0 kmh WNW 13.0 mph20.9 kmh 30.10 in1019.3 mb 0.00 in0.0 mm 0.00 in0.0 mm 0.00 in0.0 mm
07:35 PM 64.4°F18.0°C 32.3°F0.2°C 30% 5.0 mph WNW8.0 kmh WNW 11.0 mph17.7 kmh 30.10 in1019.3 mb 0.00 in0.0 mm 0.00 in0.0 mm 0.00 in0.0 mm
07:40 PM 63.8°F17.7°C 31.7°F-0.2°C 30% 5.0 mph NW8.0 kmh NW 10.0 mph16.1 kmh 30.10 in1019.3 mb 0.00 in0.0 mm 0.00 in0.0 mm 0.00 in0.0 mm
07:45 PM 63.2°F17.3°C 31.2°F-0.4°C 30% 4.0 mph NW6.4 kmh NW 8.0 mph12.9 kmh 30.11 in1019.6 mb 0.00 in0.0 mm 0.00 in0.0 mm 0.00 in0.0 mm
07:50 PM 62.7°F17.1°C 31.6°F-0.2°C 31% 3.0 mph NW4.8 kmh NW 7.0 mph11.3 kmh 30.11 in1019.6 mb 0.00 in0.0 mm 0.00 in0.0 mm 0.00 in0.0 mm
07:55 PM 62.0°F16.7°C 31.0°F-0.6°C 31% 3.0 mph WNW4.8 kmh WNW 10.0 mph16.1 kmh 30.11 in1019.6 mb 0.00 in0.0 mm 0.00 in0.0 mm 0.00 in0.0 mm
08:00 PM 61.6°F16.4°C 30.6°F-0.8°C 31% 3.0 mph WNW4.8 kmh WNW 10.0 mph16.1 kmh 30.11 in1019.6 mb 0.00 in0.0 mm 0.00 in0.0 mm 0.00 in0.0 mm
08:05 PM 61.1°F16.2°C 30.2°F-1.0°C 31% 3.0 mph WNW4.8 kmh WNW 5.0 mph8.0 kmh 30.11 in1019.6 mb 0.00 in0.0 mm 0.00 in0.0 mm 0.00 in0.0 mm
08:10 PM 60.6°F15.9°C 29.8°F-1.2°C 31% 3.0 mph WNW4.8 kmh WNW 6.0 mph9.7 kmh 30.11 in1019.6 mb 0.00 in0.0 mm 0.00 in0.0 mm 0.00 in0.0 mm
08:15 PM 60.3°F15.7°C 29.5°F-1.4°C 31% 3.0 mph WNW4.8 kmh WNW 6.0 mph9.7 kmh 30.11 in1019.6 mb 0.00 in0.0 mm 0.00 in0.0 mm 0.00 in0.0 mm
08:20 PM 59.8°F15.4°C 29.9°F-1.2°C 32% 3.0 mph WNW4.8 kmh WNW 6.0 mph9.7 kmh 30.11 in1019.6 mb 0.00 in0.0 mm 0.00 in0.0 mm 0.00 in0.0 mm
08:25 PM 59.5°F15.3°C 29.6°F-1.3°C 32% 3.0 mph WNW4.8 kmh WNW 7.0 mph11.3 kmh 30.12 in1020.0 mb 0.00 in0.0 mm 0.00 in0.0 mm 0.00 in0.0 mm
08:30 PM 59.2°F15.1°C 30.1°F-1.1°C 33% 3.0 mph WNW4.8 kmh WNW 7.0 mph11.3 kmh 30.11 in1019.6 mb 0.00 in0.0 mm 0.00 in0.0 mm 0.00 in0.0 mm
08:35 PM 58.8°F14.9°C 30.5°F-0.8°C 34% 3.0 mph WNW4.8 kmh WNW 6.0 mph9.7 kmh 30.11 in1019.6 mb 0.00 in0.0 mm 0.00 in0.0 mm 0.00 in0.0 mm
08:40 PM 58.4°F14.7°C 30.1°F-1.1°C 34% 2.0 mph WNW3.2 kmh WNW 6.0 mph9.7 kmh 30.12 in1020.0 mb 0.00 in0.0 mm 0.00 in0.0 mm 0.00 in0.0 mm
08:45 PM 58.0°F14.4°C 30.5°F-0.8°C 35% 2.0 mph WNW3.2 kmh WNW 5.0 mph8.0 kmh 30.11 in1019.6 mb 0.00 in0.0 mm 0.00 in0.0 mm 0.00 in0.0 mm
08:50 PM 57.6°F14.2°C 30.8°F-0.7°C 36% 2.0 mph NW3.2 kmh NW 5.0 mph8.0 kmh 30.11 in1019.6 mb 0.00 in0.0 mm 0.00 in0.0 mm 0.00 in0.0 mm
08:55 PM 57.3°F14.1°C 30.5°F-0.8°C 36% 3.0 mph NW4.8 kmh NW 7.0 mph11.3 kmh 30.11 in1019.6 mb 0.00 in0.0 mm 0.00 in0.0 mm 0.00 in0.0 mm
09:00 PM 57.0°F13.9°C 31.0°F-0.6°C 37% 3.0 mph NW4.8 kmh NW 7.0 mph11.3 kmh 30.11 in1019.6 mb 0.00 in0.0 mm 0.00 in0.0 mm 0.00 in0.0 mm
09:05 PM 56.8°F13.8°C 32.1°F0.1°C 39% 3.0 mph NW4.8 kmh NW 7.0 mph11.3 kmh 30.11 in1019.6 mb 0.00 in0.0 mm 0.00 in0.0 mm 0.00 in0.0 mm
09:10 PM 56.5°F13.6°C 31.8°F-0.1°C 39% 3.0 mph NW4.8 kmh NW 7.0 mph11.3 kmh 30.11 in1019.6 mb 0.00 in0.0 mm 0.00 in0.0 mm 0.00 in0.0 mm
09:15 PM 56.3°F13.5°C 31.6°F-0.2°C 39% 3.0 mph NW4.8 kmh NW 5.0 mph8.0 kmh 30.12 in1020.0 mb 0.00 in0.0 mm 0.00 in0.0 mm 0.00 in0.0 mm
09:20 PM 56.1°F13.4°C 32.1°F0.1°C 40% 3.0 mph NW4.8 kmh NW 6.0 mph9.7 kmh 30.12 in1020.0 mb 0.00 in0.0 mm 0.00 in0.0 mm 0.00 in0.0 mm
09:25 PM 55.9°F13.3°C 32.5°F0.3°C 41% 3.0 mph NW4.8 kmh NW 6.0 mph9.7 kmh 30.12 in1020.0 mb 0.00 in0.0 mm 0.00 in0.0 mm 0.00 in0.0 mm
09:30 PM 55.5°F13.1°C 32.2°F0.1°C 41% 2.0 mph NW3.2 kmh NW 5.0 mph8.0 kmh 30.12 in1020.0 mb 0.00 in0.0 mm 0.00 in0.0 mm 0.00 in0.0 mm
09:35 PM 55.2°F12.9°C 32.5°F0.3°C 42% 3.0 mph NW4.8 kmh NW 6.0 mph9.7 kmh 30.12 in1020.0 mb 0.00 in0.0 mm 0.00 in0.0 mm 0.00 in0.0 mm
09:40 PM 55.0°F12.8°C 32.3°F0.2°C 42% 3.0 mph NW4.8 kmh NW 6.0 mph9.7 kmh 30.13 in1020.3 mb 0.00 in0.0 mm 0.00 in0.0 mm 0.00 in0.0 mm
09:45 PM 54.8°F12.7°C 32.7°F0.4°C 43% 3.0 mph NW4.8 kmh NW 5.0 mph8.0 kmh 30.12 in1020.0 mb 0.00 in0.0 mm 0.00 in0.0 mm 0.00 in0.0 mm
09:50 PM 54.5°F12.5°C 33.0°F0.6°C 44% 3.0 mph NW4.8 kmh NW 5.0 mph8.0 kmh 30.13 in1020.3 mb 0.00 in0.0 mm 0.00 in0.0 mm 0.00 in0.0 mm
09:55 PM 54.2°F12.3°C 33.3°F0.7°C 45% 2.0 mph NW3.2 kmh NW 5.0 mph8.0 kmh 30.13 in1020.3 mb 0.00 in0.0 mm 0.00 in0.0 mm 0.00 in0.0 mm
10:00 PM 53.9°F12.2°C 33.0°F0.6°C 45% 2.0 mph NW3.2 kmh NW 5.0 mph8.0 kmh 30.13 in1020.3 mb 0.00 in0.0 mm 0.00 in0.0 mm 0.00 in0.0 mm
10:05 PM 53.6°F12.0°C 33.3°F0.7°C 46% 2.0 mph NW3.2 kmh NW 5.0 mph8.0 kmh 30.13 in1020.3 mb 0.00 in0.0 mm 0.00 in0.0 mm 0.00 in0.0 mm
10:10 PM 53.4°F11.9°C 33.1°F0.6°C 46% 3.0 mph NW4.8 kmh NW 8.0 mph12.9 kmh 30.13 in1020.3 mb 0.00 in0.0 mm 0.00 in0.0 mm 0.00 in0.0 mm
10:15 PM 53.1°F11.7°C 33.4°F0.8°C 47% 2.0 mph NW3.2 kmh NW 8.0 mph12.9 kmh 30.13 in1020.3 mb 0.00 in0.0 mm 0.00 in0.0 mm 0.00 in0.0 mm
10:20 PM 52.9°F11.6°C 33.7°F0.9°C 48% 2.0 mph NW3.2 kmh NW 6.0 mph9.7 kmh 30.14 in1020.7 mb 0.00 in0.0 mm 0.00 in0.0 mm 0.00 in0.0 mm
10:25 PM 52.8°F11.6°C 33.6°F0.9°C 48% 3.0 mph NW4.8 kmh NW 6.0 mph9.7 kmh 30.14 in1020.7 mb 0.00 in0.0 mm 0.00 in0.0 mm 0.00 in0.0 mm
10:30 PM 52.6°F11.4°C 34.0°F1.1°C 49% 3.0 mph WNW4.8 kmh WNW 7.0 mph11.3 kmh 30.14 in1020.7 mb 0.00 in0.0 mm 0.00 in0.0 mm 0.00 in0.0 mm
10:35 PM 52.5°F11.4°C 34.4°F1.3°C 50% 3.0 mph NW4.8 kmh NW 7.0 mph11.3 kmh 30.14 in1020.7 mb 0.00 in0.0 mm 0.00 in0.0 mm 0.00 in0.0 mm
10:40 PM 52.3°F11.3°C 34.7°F1.5°C 51% 3.0 mph NW4.8 kmh NW 5.0 mph8.0 kmh 30.14 in1020.7 mb 0.00 in0.0 mm 0.00 in0.0 mm 0.00 in0.0 mm
10:45 PM 52.0°F11.1°C 34.4°F1.3°C 51% 3.0 mph NW4.8 kmh NW 6.0 mph9.7 kmh 30.14 in1020.7 mb 0.00 in0.0 mm 0.00 in0.0 mm 0.00 in0.0 mm
10:50 PM 51.8°F11.0°C 35.2°F1.8°C 53% 3.0 mph NW4.8 kmh NW 6.0 mph9.7 kmh 30.14 in1020.7 mb 0.00 in0.0 mm 0.00 in0.0 mm 0.00 in0.0 mm
10:55 PM 51.6°F10.9°C 35.5°F1.9°C 54% 2.0 mph WNW3.2 kmh WNW 5.0 mph8.0 kmh 30.14 in1020.7 mb 0.00 in0.0 mm 0.00 in0.0 mm 0.00 in0.0 mm
11:00 PM 51.4°F10.8°C 35.8°F2.1°C 55% 3.0 mph NW4.8 kmh NW 6.0 mph9.7 kmh 30.14 in1020.7 mb 0.00 in0.0 mm 0.00 in0.0 mm 0.00 in0.0 mm
11:05 PM 51.2°F10.7°C 35.6°F2.0°C 55% 3.0 mph NW4.8 kmh NW 6.0 mph9.7 kmh 30.14 in1020.7 mb 0.00 in0.0 mm 0.00 in0.0 mm 0.00 in0.0 mm
11:10 PM 51.1°F10.6°C 35.9°F2.2°C 56% 3.0 mph NW4.8 kmh NW 6.0 mph9.7 kmh 30.14 in1020.7 mb 0.00 in0.0 mm 0.00 in0.0 mm 0.00 in0.0 mm
11:15 PM 50.9°F10.5°C 36.2°F2.3°C 57% 3.0 mph NW4.8 kmh NW 6.0 mph9.7 kmh 30.14 in1020.7 mb 0.00 in0.0 mm 0.00 in0.0 mm 0.00 in0.0 mm
11:20 PM 50.7°F10.4°C 36.5°F2.5°C 58% 2.0 mph NW3.2 kmh NW 5.0 mph8.0 kmh 30.14 in1020.7 mb 0.00 in0.0 mm 0.00 in0.0 mm 0.00 in0.0 mm
11:25 PM 50.4°F10.2°C 36.2°F2.3°C 58% 2.0 mph NW3.2 kmh NW 6.0 mph9.7 kmh 30.14 in1020.7 mb 0.00 in0.0 mm 0.00 in0.0 mm 0.00 in0.0 mm
11:30 PM 50.2°F10.1°C 36.4°F2.4°C 59% 2.0 mph NW3.2 kmh NW 6.0 mph9.7 kmh 30.14 in1020.7 mb 0.00 in0.0 mm 0.00 in0.0 mm 0.00 in0.0 mm
11:35 PM 49.9°F9.9°C 36.1°F2.3°C 59% 2.0 mph NW3.2 kmh NW 4.0 mph6.4 kmh 30.14 in1020.7 mb 0.00 in0.0 mm 0.00 in0.0 mm 0.00 in0.0 mm
11:40 PM 49.6°F9.8°C 36.3°F2.4°C 60% 2.0 mph NW3.2 kmh NW 4.0 mph6.4 kmh 30.14 in1020.7 mb 0.00 in0.0 mm 0.00 in0.0 mm 0.00 in0.0 mm
11:45 PM 49.3°F9.6°C 36.4°F2.4°C 61% 2.0 mph WNW3.2 kmh WNW 4.0 mph6.4 kmh 30.14 in1020.7 mb 0.00 in0.0 mm 0.00 in0.0 mm 0.00 in0.0 mm
11:50 PM 49.0°F9.4°C 36.5°F2.5°C 62% 1.0 mph WNW1.6 kmh WNW 3.0 mph4.8 kmh 30.14 in1020.7 mb 0.00 in0.0 mm 0.00 in0.0 mm 0.00 in0.0 mm
11:55 PM 48.5°F9.2°C 36.1°F2.3°C 62% 1.0 mph WNW1.6 kmh WNW 2.0 mph3.2 kmh 30.14 in1020.7 mb 0.00 in0.0 mm 0.00 in0.0 mm 0.00 in0.0 mm